aviador You're here:

KBKL Decoded Metar

CLEVELAND in OH, USA
Report Time2018-02-25 22:53:00
UTC Time2018-02-25 23:30:00
Flight Rules vfr VFR
Wind230° at 14 kt
W.Decomp.*RWY 24: 14.0 kt HW 0.7 kt LCW
W.Rank230° ranks 4
Current wind is above 230° avg. (11.1)
Visibility9999 m
Phenomena:N/A
Clouds:N/A
Expected CloudBase > 2,800 ft AGL from Temp-Dew spread
CeilingNone
Temp07°C (ISA -7)
Dew Point00°C (61% RH)
AAT-0.0°C
QNH1015 hPa
Density Alt-194 ft
Elevation604 ft
Report Wrong Elevation
Raw Report
METAR KBKL 252253Z 23014KT 10SM CLR 07/00 A2998 RMK AO2 SLP152 T00720000=

Extra information for KBKL:More info

Metar Taf Metar & Taf Last 4 Metars F.Rules Stats Wind Profile Meteogram Temp Stats Airport Information Weather charts Add Link Nearby VenuesMetar ALERT Operation Metar Decoded Social comments

AIRNAV info for KBKL